Newmarket, Canada
Current Conditions -  °F | °C
As of 7:00 AM on Sunday 23 Nov 2014 (Local Time) from CYKZ Reporting Station
Haze Haze  
Wind Chill: 41°   Ceiling: 3800
Heat Index: 41°   Visibility: 6mi
Dew Point: 41°   Wind: 2mph
Humidity: 100%   Direction: 190°S
Pressure: 29.98"   Gusts: NA
Location:  44.04°N, 79.46°W
Report Text: CYKZ 231200Z 19002KT 6SM BR FEW018 OVC038 05/05 A2998 RMK SF1SC7 SLP157
Loading
Personal Weather Stations






























Interactive Weather Map New forecast layout! Learn more

10-Day Weather Forecast

Advertisements
Track Severe Weather on mobile